sensor_id;sensor_type;location;lat;lon;timestamp;pressure;altitude;pressure_sealevel;temperature;humidity
46782;BME280;32541;46.298;11.506;2023-03-16T00:01:37;89495.31;;;-1.57;50.21
46782;BME280;32541;46.298;11.506;2023-03-16T00:04:02;89493.88;;;-1.58;49.86
46782;BME280;32541;46.298;11.506;2023-03-16T00:06:28;89485.84;;;-1.63;49.30
46782;BME280;32541;46.298;11.506;2023-03-16T00:08:53;89491.59;;;-1.54;51.58
46782;BME280;32541;46.298;11.506;2023-03-16T00:11:24;89484.31;;;-1.59;52.91
46782;BME280;32541;46.298;11.506;2023-03-16T00:13:50;89499.00;;;-1.60;49.56
46782;BME280;32541;46.298;11.506;2023-03-16T00:16:15;89492.13;;;-1.55;49.48
46782;BME280;32541;46.298;11.506;2023-03-16T00:18:41;89498.75;;;-1.56;50.07
46782;BME280;32541;46.298;11.506;2023-03-16T00:21:06;89495.25;;;-1.51;49.27
46782;BME280;32541;46.298;11.506;2023-03-16T00:23:33;89501.22;;;-1.58;49.86
46782;BME280;32541;46.298;11.506;2023-03-16T00:26:02;89496.16;;;-1.67;49.52
46782;BME280;32541;46.298;11.506;2023-03-16T00:28:29;89503.25;;;-1.64;49.65
46782;BME280;32541;46.298;11.506;2023-03-16T00:31:04;89495.38;;;-1.62;50.18
46782;BME280;32541;46.298;11.506;2023-03-16T00:33:30;89497.91;;;-1.70;50.33
46782;BME280;32541;46.298;11.506;2023-03-16T00:36:03;89492.31;;;-1.78;51.57
46782;BME280;32541;46.298;11.506;2023-03-16T00:38:37;89495.66;;;-1.90;52.18
46782;BME280;32541;46.298;11.506;2023-03-16T00:41:05;89506.50;;;-2.01;51.70
46782;BME280;32541;46.298;11.506;2023-03-16T00:43:34;89497.94;;;-2.00;51.14
46782;BME280;32541;46.298;11.506;2023-03-16T00:46:11;89494.91;;;-1.91;50.94
46782;BME280;32541;46.298;11.506;2023-03-16T00:48:40;89489.94;;;-1.81;51.43
46782;BME280;32541;46.298;11.506;2023-03-16T00:51:09;89482.78;;;-1.79;50.98
46782;BME280;32541;46.298;11.506;2023-03-16T00:53:38;89493.22;;;-1.94;51.09
46782;BME280;32541;46.298;11.506;2023-03-16T00:56:04;89496.59;;;-1.88;50.78
46782;BME280;32541;46.298;11.506;2023-03-16T00:58:34;89495.66;;;-1.90;51.21
46782;BME280;32541;46.298;11.506;2023-03-16T01:01:08;89500.06;;;-1.93;51.15
46782;BME280;32541;46.298;11.506;2023-03-16T01:03:36;89495.41;;;-1.92;50.42
46782;BME280;32541;46.298;11.506;2023-03-16T01:06:07;89495.41;;;-1.92;51.09
46782;BME280;32541;46.298;11.506;2023-03-16T01:08:34;89489.09;;;-2.00;51.33
46782;BME280;32541;46.298;11.506;2023-03-16T01:11:05;89487.69;;;-2.07;51.21
46782;BME280;32541;46.298;11.506;2023-03-16T01:13:31;89488.94;;;-2.08;51.49
46782;BME280;32541;46.298;11.506;2023-03-16T01:15:58;89490.13;;;-2.03;51.03
46782;BME280;32541;46.298;11.506;2023-03-16T01:18:23;89491.34;;;-2.04;50.15
46782;BME280;32541;46.298;11.506;2023-03-16T01:20:49;89489.38;;;-2.04;52.48
46782;BME280;32541;46.298;11.506;2023-03-16T01:23:18;89485.03;;;-2.12;51.64
46782;BME280;32541;46.298;11.506;2023-03-16T01:25:44;89492.34;;;-2.07;50.44
46782;BME280;32541;46.298;11.506;2023-03-16T01:28:20;89479.72;;;-2.18;50.31
46782;BME280;32541;46.298;11.506;2023-03-16T01:30:51;89483.88;;;-2.17;50.48
46782;BME280;32541;46.298;11.506;2023-03-16T01:33:23;89473.13;;;-2.22;51.46
46782;BME280;32541;46.298;11.506;2023-03-16T01:35:53;89490.22;;;-2.14;51.83
46782;BME280;32541;46.298;11.506;2023-03-16T01:38:19;89486.56;;;-2.17;52.11
46782;BME280;32541;46.298;11.506;2023-03-16T01:40:44;89487.16;;;-2.30;52.04
46782;BME280;32541;46.298;11.506;2023-03-16T01:43:10;89488.88;;;-2.32;51.87
46782;BME280;32541;46.298;11.506;2023-03-16T01:48:57;89472.44;;;-2.29;52.14
46782;BME280;32541;46.298;11.506;2023-03-16T01:51:41;89476.19;;;-2.37;51.55
46782;BME280;32541;46.298;11.506;2023-03-16T01:54:25;89470.53;;;-2.34;52.58
46782;BME280;32541;46.298;11.506;2023-03-16T01:59:35;89467.66;;;-2.41;52.45
46782;BME280;32541;46.298;11.506;2023-03-16T02:02:01;89468.38;;;-2.41;52.53
46782;BME280;32541;46.298;11.506;2023-03-16T02:05:00;89469.41;;;-2.44;52.49
46782;BME280;32541;46.298;11.506;2023-03-16T02:07:31;89468.91;;;-2.48;53.23
46782;BME280;32541;46.298;11.506;2023-03-16T02:09:59;89467.22;;;-2.51;52.16
46782;BME280;32541;46.298;11.506;2023-03-16T02:12:27;89468.91;;;-2.48;52.05
46782;BME280;32541;46.298;11.506;2023-03-16T02:14:53;89467.91;;;-2.45;51.46
46782;BME280;32541;46.298;11.506;2023-03-16T02:17:21;89472.56;;;-2.45;53.33
46782;BME280;32541;46.298;11.506;2023-03-16T02:20:07;89469.00;;;-2.59;53.62
46782;BME280;32541;46.298;11.506;2023-03-16T02:22:42;89466.88;;;-2.36;52.74
46782;BME280;32541;46.298;11.506;2023-03-16T02:25:09;89472.53;;;-2.40;52.42
46782;BME280;32541;46.298;11.506;2023-03-16T02:27:56;89470.19;;;-2.54;52.71
46782;BME280;32541;46.298;11.506;2023-03-16T02:30:25;89462.16;;;-2.60;51.54
46782;BME280;32541;46.298;11.506;2023-03-16T02:32:51;89453.09;;;-2.57;50.88
46782;BME280;32541;46.298;11.506;2023-03-16T02:35:18;89460.38;;;-2.52;52.98
46782;BME280;32541;46.298;11.506;2023-03-16T02:37:43;89456.03;;;-2.60;53.61
46782;BME280;32541;46.298;11.506;2023-03-16T02:40:25;89461.63;;;-2.53;53.19
46782;BME280;32541;46.298;11.506;2023-03-16T02:45:24;89456.81;;;-2.65;54.00
46782;BME280;32541;46.298;11.506;2023-03-16T02:47:52;89462.16;;;-2.60;53.07
46782;BME280;32541;46.298;11.506;2023-03-16T02:50:19;89465.34;;;-2.61;54.07
46782;BME280;32541;46.298;11.506;2023-03-16T02:52:45;89466.34;;;-2.64;53.66
46782;BME280;32541;46.298;11.506;2023-03-16T02:55:12;89467.56;;;-2.65;53.54
46782;BME280;32541;46.298;11.506;2023-03-16T02:57:37;89464.88;;;-2.65;52.93
46782;BME280;32541;46.298;11.506;2023-03-16T03:00:03;89469.53;;;-2.66;53.40
46782;BME280;32541;46.298;11.506;2023-03-16T03:02:44;89470.78;;;-2.72;53.18
46782;BME280;32541;46.298;11.506;2023-03-16T03:05:10;89476.44;;;-2.76;53.43
46782;BME280;32541;46.298;11.506;2023-03-16T03:07:36;89475.69;;;-2.71;53.41
46782;BME280;32541;46.298;11.506;2023-03-16T03:10:03;89475.22;;;-2.75;53.87
46782;BME280;32541;46.298;11.506;2023-03-16T03:12:31;89474.28;;;-2.83;52.73
46782;BME280;32541;46.298;11.506;2023-03-16T03:14:56;89476.88;;;-2.66;51.37
46782;BME280;32541;46.298;11.506;2023-03-16T03:17:22;89471.44;;;-2.61;50.93
46782;BME280;32541;46.298;11.506;2023-03-16T03:19:55;89472.44;;;-2.64;52.03
46782;BME280;32541;46.298;11.506;2023-03-16T03:22:20;89477.56;;;-2.60;51.98
46782;BME280;32541;46.298;11.506;2023-03-16T03:24:45;89480.78;;;-2.62;52.10
46782;BME280;32541;46.298;11.506;2023-03-16T03:27:11;89484.97;;;-2.72;53.33
46782;BME280;32541;46.298;11.506;2023-03-16T03:29:36;89491.69;;;-2.90;53.45
46782;BME280;32541;46.298;11.506;2023-03-16T03:32:03;89491.63;;;-2.78;53.67
46782;BME280;32541;46.298;11.506;2023-03-16T03:34:29;89488.19;;;-2.79;53.60
46782;BME280;32541;46.298;11.506;2023-03-16T03:36:56;89500.50;;;-2.89;53.32
46782;BME280;32541;46.298;11.506;2023-03-16T03:39:22;89495.13;;;-2.89;53.47
46782;BME280;32541;46.298;11.506;2023-03-16T03:41:47;89491.97;;;-2.99;54.34
46782;BME280;32541;46.298;11.506;2023-03-16T03:44:13;89499.03;;;-2.90;54.11
46782;BME280;32541;46.298;11.506;2023-03-16T03:46:38;89501.72;;;-2.90;53.34
46782;BME280;32541;46.298;11.506;2023-03-16T03:49:03;89502.25;;;-3.03;53.78
46782;BME280;32541;46.298;11.506;2023-03-16T03:51:30;89511.56;;;-3.04;55.05
46782;BME280;32541;46.298;11.506;2023-03-16T03:53:56;89510.66;;;-3.12;55.16
46782;BME280;32541;46.298;11.506;2023-03-16T03:56:22;89511.16;;;-3.19;55.10
46782;BME280;32541;46.298;11.506;2023-03-16T03:58:47;89508.13;;;-2.99;55.07
46782;BME280;32541;46.298;11.506;2023-03-16T04:01:13;89507.66;;;-3.08;54.33
46782;BME280;32541;46.298;11.506;2023-03-16T04:03:38;89507.47;;;-3.16;54.60
46782;BME280;32541;46.298;11.506;2023-03-16T04:06:04;89510.91;;;-3.15;54.61
46782;BME280;32541;46.298;11.506;2023-03-16T04:08:31;89509.94;;;-3.23;54.74
46782;BME280;32541;46.298;11.506;2023-03-16T04:10:56;89519.00;;;-3.21;55.11
46782;BME280;32541;46.298;11.506;2023-03-16T04:13:22;89512.88;;;-3.21;55.16
46782;BME280;32541;46.298;11.506;2023-03-16T04:15:47;89513.84;;;-3.19;54.32
46782;BME280;32541;46.298;11.506;2023-03-16T04:18:13;89516.53;;;-3.19;53.68
46782;BME280;32541;46.298;11.506;2023-03-16T04:20:38;89517.53;;;-3.22;54.36
46782;BME280;32541;46.298;11.506;2023-03-16T04:23:04;89519.50;;;-3.28;55.49
46782;BME280;32541;46.298;11.506;2023-03-16T04:25:29;89518.53;;;-3.30;53.88
46782;BME280;32541;46.298;11.506;2023-03-16T04:27:55;89519.25;;;-3.24;54.01
46782;BME280;32541;46.298;11.506;2023-03-16T04:30:21;89518.47;;;-3.19;54.21
46782;BME280;32541;46.298;11.506;2023-03-16T04:32:50;89525.06;;;-3.20;54.76
46782;BME280;32541;46.298;11.506;2023-03-16T04:35:16;89513.88;;;-3.36;54.88
46782;BME280;32541;46.298;11.506;2023-03-16T04:37:41;89519.03;;;-3.38;55.82
46782;BME280;32541;46.298;11.506;2023-03-16T04:40:07;89519.78;;;-3.43;55.74
46782;BME280;32541;46.298;11.506;2023-03-16T04:42:39;89517.59;;;-3.44;55.62
46782;BME280;32541;46.298;11.506;2023-03-16T04:45:05;89516.56;;;-3.36;55.10
46782;BME280;32541;46.298;11.506;2023-03-16T04:47:30;89517.34;;;-3.41;54.64
46782;BME280;32541;46.298;11.506;2023-03-16T04:49:59;89515.41;;;-3.46;55.17
46782;BME280;32541;46.298;11.506;2023-03-16T04:52:24;89526.88;;;-3.40;54.84
46782;BME280;32541;46.298;11.506;2023-03-16T04:54:49;89524.63;;;-3.36;54.76
46782;BME280;32541;46.298;11.506;2023-03-16T04:57:16;89525.38;;;-3.35;55.11
46782;BME280;32541;46.298;11.506;2023-03-16T04:59:43;89522.22;;;-3.39;55.48
46782;BME280;32541;46.298;11.506;2023-03-16T05:02:09;89526.09;;;-3.34;53.38
46782;BME280;32541;46.298;11.506;2023-03-16T05:04:34;89523.66;;;-3.27;55.03
46782;BME280;32541;46.298;11.506;2023-03-16T05:07:00;89528.56;;;-3.37;55.19
46782;BME280;32541;46.298;11.506;2023-03-16T05:09:25;89529.31;;;-3.47;55.93
46782;BME280;32541;46.298;11.506;2023-03-16T05:11:50;89524.91;;;-3.39;55.63
46782;BME280;32541;46.298;11.506;2023-03-16T05:14:16;89532.50;;;-3.49;55.40
46782;BME280;32541;46.298;11.506;2023-03-16T05:16:41;89518.84;;;-3.51;56.44
46782;BME280;32541;46.298;11.506;2023-03-16T05:19:06;89528.59;;;-3.42;55.47
46782;BME280;32541;46.298;11.506;2023-03-16T05:21:32;89527.84;;;-3.43;55.92
46782;BME280;32541;46.298;11.506;2023-03-16T05:23:58;89517.09;;;-3.43;55.99
46782;BME280;32541;46.298;11.506;2023-03-16T05:26:23;89521.75;;;-3.43;56.55
46782;BME280;32541;46.298;11.506;2023-03-16T05:28:50;89520.56;;;-3.48;55.97
46782;BME280;32541;46.298;11.506;2023-03-16T05:31:16;89514.91;;;-3.50;56.13
46782;BME280;32541;46.298;11.506;2023-03-16T05:33:41;89519.56;;;-3.56;56.26
46782;BME280;32541;46.298;11.506;2023-03-16T05:36:07;89518.59;;;-3.58;55.99
46782;BME280;32541;46.298;11.506;2023-03-16T05:38:32;89513.69;;;-3.43;56.50
46782;BME280;32541;46.298;11.506;2023-03-16T05:41:00;89521.75;;;-3.43;54.69
46782;BME280;32541;46.298;11.506;2023-03-16T05:43:28;89521.81;;;-3.60;56.50
46782;BME280;32541;46.298;11.506;2023-03-16T05:45:54;89524.72;;;-3.58;56.00
46782;BME280;32541;46.298;11.506;2023-03-16T05:48:20;89531.28;;;-3.53;58.29
46782;BME280;32541;46.298;11.506;2023-03-16T05:50:46;89532.78;;;-3.58;57.54
46782;BME280;32541;46.298;11.506;2023-03-16T05:53:11;89537.88;;;-3.49;57.16
46782;BME280;32541;46.298;11.506;2023-03-16T05:55:37;89540.53;;;-3.38;59.94
46782;BME280;32541;46.298;11.506;2023-03-16T05:58:03;89538.84;;;-3.41;59.35
46782;BME280;32541;46.298;11.506;2023-03-16T06:00:29;89549.59;;;-3.46;57.83
46782;BME280;32541;46.298;11.506;2023-03-16T06:02:54;89549.34;;;-3.43;57.30
46782;BME280;32541;46.298;11.506;2023-03-16T06:05:21;89542.03;;;-3.48;57.40
46782;BME280;32541;46.298;11.506;2023-03-16T06:07:47;89551.78;;;-3.39;56.98
46782;BME280;32541;46.298;11.506;2023-03-16T06:10:13;89552.25;;;-3.35;56.30
46782;BME280;32541;46.298;11.506;2023-03-16T06:12:39;89559.13;;;-3.40;56.26
46782;BME280;32541;46.298;11.506;2023-03-16T06:15:06;89565.69;;;-3.35;63.43
46782;BME280;32541;46.298;11.506;2023-03-16T06:17:32;89563.75;;;-3.34;57.74
46782;BME280;32541;46.298;11.506;2023-03-16T06:19:57;89559.31;;;-3.26;57.67
46782;BME280;32541;46.298;11.506;2023-03-16T06:22:23;89566.13;;;-3.14;56.96
46782;BME280;32541;46.298;11.506;2023-03-16T06:24:49;89569.56;;;-3.19;59.17
46782;BME280;32541;46.298;11.506;2023-03-16T06:27:15;89582.75;;;-3.16;58.21
46782;BME280;32541;46.298;11.506;2023-03-16T06:29:40;89583.50;;;-3.15;57.21
46782;BME280;32541;46.298;11.506;2023-03-16T06:32:06;89576.16;;;-3.20;55.39
46782;BME280;32541;46.298;11.506;2023-03-16T06:34:31;89588.38;;;-3.14;56.50
46782;BME280;32541;46.298;11.506;2023-03-16T06:36:58;89586.91;;;-3.09;56.41
46782;BME280;32541;46.298;11.506;2023-03-16T06:39:23;89590.81;;;-3.16;56.33
46782;BME280;32541;46.298;11.506;2023-03-16T06:41:49;89601.09;;;-3.20;56.20
46782;BME280;32541;46.298;11.506;2023-03-16T06:44:14;89607.22;;;-3.19;56.85
46782;BME280;32541;46.298;11.506;2023-03-16T06:46:39;89608.19;;;-3.22;57.35
46782;BME280;32541;46.298;11.506;2023-03-16T06:49:05;89609.91;;;-3.19;57.33
46782;BME280;32541;46.298;11.506;2023-03-16T06:51:31;89610.84;;;-3.11;57.42
46782;BME280;32541;46.298;11.506;2023-03-16T06:53:57;89616.00;;;-3.13;57.68
46782;BME280;32541;46.298;11.506;2023-03-16T06:56:22;89614.50;;;-3.09;57.40
46782;BME280;32541;46.298;11.506;2023-03-16T06:58:48;89619.63;;;-3.05;57.47
46782;BME280;32541;46.298;11.506;2023-03-16T07:01:13;89622.06;;;-3.02;56.77
46782;BME280;32541;46.298;11.506;2023-03-16T07:03:38;89620.88;;;-3.06;56.77
46782;BME280;32541;46.298;11.506;2023-03-16T07:06:04;89625.22;;;-2.87;55.98
46782;BME280;32541;46.298;11.506;2023-03-16T07:08:30;89621.22;;;-2.17;54.85
46782;BME280;32541;46.298;11.506;2023-03-16T07:10:56;89612.00;;;-1.62;53.07
46782;BME280;32541;46.298;11.506;2023-03-16T07:13:21;89614.94;;;-0.39;51.46
46782;BME280;32541;46.298;11.506;2023-03-16T07:15:51;89619.00;;;0.74;48.64
46782;BME280;32541;46.298;11.506;2023-03-16T07:18:18;89617.16;;;2.00;45.87
46782;BME280;32541;46.298;11.506;2023-03-16T07:20:43;89612.84;;;2.52;44.96
46782;BME280;32541;46.298;11.506;2023-03-16T07:23:08;89611.25;;;2.98;43.39
46782;BME280;32541;46.298;11.506;2023-03-16T07:25:35;89608.53;;;3.75;41.66
46782;BME280;32541;46.298;11.506;2023-03-16T07:28:01;89611.63;;;4.15;41.56
46782;BME280;32541;46.298;11.506;2023-03-16T07:30:26;89615.28;;;4.17;42.12
46782;BME280;32541;46.298;11.506;2023-03-16T07:32:51;89607.63;;;4.67;41.23
46782;BME280;32541;46.298;11.506;2023-03-16T07:35:17;89616.22;;;5.01;40.86
46782;BME280;32541;46.298;11.506;2023-03-16T07:37:42;89613.88;;;5.35;39.48
46782;BME280;32541;46.298;11.506;2023-03-16T07:40:08;89611.50;;;5.70;38.07
46782;BME280;32541;46.298;11.506;2023-03-16T07:42:34;89612.94;;;5.78;38.16
46782;BME280;32541;46.298;11.506;2023-03-16T07:45:01;89612.41;;;5.87;38.05
46782;BME280;32541;46.298;11.506;2023-03-16T07:47:26;89609.25;;;6.06;38.01
46782;BME280;32541;46.298;11.506;2023-03-16T07:49:52;89615.00;;;6.40;36.69
46782;BME280;32541;46.298;11.506;2023-03-16T07:52:17;89619.19;;;6.41;36.40
46782;BME280;32541;46.298;11.506;2023-03-16T07:54:43;89618.00;;;6.59;37.20
46782;BME280;32541;46.298;11.506;2023-03-16T07:57:08;89614.81;;;6.78;36.57
46782;BME280;32541;46.298;11.506;2023-03-16T07:59:34;89615.69;;;6.88;36.33
46782;BME280;32541;46.298;11.506;2023-03-16T08:01:59;89621.59;;;7.34;35.47
46782;BME280;32541;46.298;11.506;2023-03-16T08:04:24;89621.22;;;7.62;34.64
46782;BME280;32541;46.298;11.506;2023-03-16T08:06:50;89621.91;;;7.88;34.45
46782;BME280;32541;46.298;11.506;2023-03-16T08:09:25;89610.31;;;8.14;33.59
46782;BME280;32541;46.298;11.506;2023-03-16T08:11:50;89615.91;;;8.23;33.41
46782;BME280;32541;46.298;11.506;2023-03-16T08:14:15;89607.56;;;8.38;32.93
46782;BME280;32541;46.298;11.506;2023-03-16T08:16:41;89615.56;;;7.60;33.56
46782;BME280;32541;46.298;11.506;2023-03-16T08:19:06;89618.47;;;7.62;33.74
46782;BME280;32541;46.298;11.506;2023-03-16T08:21:32;89616.88;;;7.76;32.77
46782;BME280;32541;46.298;11.506;2023-03-16T08:23:58;89611.06;;;7.72;31.74
46782;BME280;32541;46.298;11.506;2023-03-16T08:26:24;89623.22;;;7.62;31.58
46782;BME280;32541;46.298;11.506;2023-03-16T08:28:51;89614.19;;;6.95;29.71
46782;BME280;32541;46.298;11.506;2023-03-16T08:31:18;89618.25;;;6.46;31.09
46782;BME280;32541;46.298;11.506;2023-03-16T08:33:45;89627.91;;;6.40;34.24
46782;BME280;32541;46.298;11.506;2023-03-16T08:36:13;89620.97;;;6.46;33.30
46782;BME280;32541;46.298;11.506;2023-03-16T08:38:40;89623.47;;;6.59;33.20
46782;BME280;32541;46.298;11.506;2023-03-16T08:41:06;89623.66;;;5.91;33.30
46782;BME280;32541;46.298;11.506;2023-03-16T08:43:31;89634.50;;;4.70;36.39
46782;BME280;32541;46.298;11.506;2023-03-16T08:45:57;89629.84;;;5.77;36.57
46782;BME280;32541;46.298;11.506;2023-03-16T08:48:23;89620.63;;;6.42;34.39
46782;BME280;32541;46.298;11.506;2023-03-16T08:50:49;89631.50;;;5.65;34.91
46782;BME280;32541;46.298;11.506;2023-03-16T08:53:16;89635.50;;;5.11;34.68
46782;BME280;32541;46.298;11.506;2023-03-16T08:55:43;89633.53;;;5.49;33.92
46782;BME280;32541;46.298;11.506;2023-03-16T08:58:10;89634.59;;;5.84;32.75
46782;BME280;32541;46.298;11.506;2023-03-16T09:00:37;89633.78;;;6.21;34.21
46782;BME280;32541;46.298;11.506;2023-03-16T09:03:04;89634.97;;;5.57;34.09
46782;BME280;32541;46.298;11.506;2023-03-16T09:05:30;89636.94;;;5.80;33.63
46782;BME280;32541;46.298;11.506;2023-03-16T09:07:56;89635.31;;;5.69;34.52
46782;BME280;32541;46.298;11.506;2023-03-16T09:10:22;89642.53;;;4.91;34.56
46782;BME280;32541;46.298;11.506;2023-03-16T09:12:49;89636.88;;;4.81;34.80
46782;BME280;32541;46.298;11.506;2023-03-16T09:15:19;89633.97;;;4.72;35.55
46782;BME280;32541;46.298;11.506;2023-03-16T09:17:47;89639.56;;;4.66;36.38
46782;BME280;32541;46.298;11.506;2023-03-16T09:20:14;89648.19;;;5.00;36.09
46782;BME280;32541;46.298;11.506;2023-03-16T09:22:40;89652.59;;;5.41;37.04
46782;BME280;32541;46.298;11.506;2023-03-16T09:25:06;89645.44;;;4.78;35.51
46782;BME280;32541;46.298;11.506;2023-03-16T09:27:33;89638.47;;;4.54;35.69
46782;BME280;32541;46.298;11.506;2023-03-16T09:29:59;89638.22;;;4.95;35.20
46782;BME280;32541;46.298;11.506;2023-03-16T09:32:27;89639.16;;;5.36;35.58
46782;BME280;32541;46.298;11.506;2023-03-16T09:34:53;89640.63;;;5.67;34.07
46782;BME280;32541;46.298;11.506;2023-03-16T09:37:19;89648.25;;;5.46;34.28
46782;BME280;32541;46.298;11.506;2023-03-16T09:39:46;89642.63;;;5.51;34.84
46782;BME280;32541;46.298;11.506;2023-03-16T09:42:17;89650.22;;;5.98;34.33
46782;BME280;32541;46.298;11.506;2023-03-16T09:47:39;89651.84;;;6.09;35.25
46782;BME280;32541;46.298;11.506;2023-03-16T09:50:10;89649.13;;;7.04;34.00
46782;BME280;32541;46.298;11.506;2023-03-16T09:57:42;89641.81;;;7.39;32.01
46782;BME280;32541;46.298;11.506;2023-03-16T10:05:22;89632.94;;;8.39;29.79
46782;BME280;32541;46.298;11.506;2023-03-16T10:08:29;89647.22;;;7.21;30.30
46782;BME280;32541;46.298;11.506;2023-03-16T10:11:10;89628.91;;;6.12;31.54
46782;BME280;32541;46.298;11.506;2023-03-16T10:16:23;89636.81;;;7.94;30.40
46782;BME280;32541;46.298;11.506;2023-03-16T10:18:58;89643.09;;;8.63;28.61
46782;BME280;32541;46.298;11.506;2023-03-16T10:21:26;89643.16;;;7.55;29.50
46782;BME280;32541;46.298;11.506;2023-03-16T10:23:53;89640.97;;;7.28;30.00
46782;BME280;32541;46.298;11.506;2023-03-16T10:26:30;89645.88;;;7.55;28.77
46782;BME280;32541;46.298;11.506;2023-03-16T10:28:58;89635.44;;;8.27;29.29
46782;BME280;32541;46.298;11.506;2023-03-16T10:31:25;89635.81;;;8.58;28.82
46782;BME280;32541;46.298;11.506;2023-03-16T10:33:57;89621.13;;;7.70;29.25
46782;BME280;32541;46.298;11.506;2023-03-16T10:36:32;89613.56;;;8.71;29.67
46782;BME280;32541;46.298;11.506;2023-03-16T10:39:08;89620.69;;;9.28;31.23
46782;BME280;32541;46.298;11.506;2023-03-16T10:41:37;89620.34;;;8.87;27.70
46782;BME280;32541;46.298;11.506;2023-03-16T10:46:46;89616.25;;;8.45;28.27
46782;BME280;32541;46.298;11.506;2023-03-16T10:49:28;89618.25;;;8.61;28.54
46782;BME280;32541;46.298;11.506;2023-03-16T10:52:05;89627.31;;;9.25;28.35
46782;BME280;32541;46.298;11.506;2023-03-16T10:54:34;89624.63;;;7.88;28.81
46782;BME280;32541;46.298;11.506;2023-03-16T10:57:31;89622.38;;;8.53;29.88
46782;BME280;32541;46.298;11.506;2023-03-16T11:00:11;89638.63;;;7.74;27.72
46782;BME280;32541;46.298;11.506;2023-03-16T11:02:39;89630.91;;;7.80;28.16
46782;BME280;32541;46.298;11.506;2023-03-16T11:07:52;89624.84;;;8.24;28.96
46782;BME280;32541;46.298;11.506;2023-03-16T11:10:28;89634.28;;;7.47;30.58
46782;BME280;32541;46.298;11.506;2023-03-16T11:12:54;89633.31;;;7.27;28.97
46782;BME280;32541;46.298;11.506;2023-03-16T11:15:25;89612.06;;;7.84;28.61
46782;BME280;32541;46.298;11.506;2023-03-16T11:17:51;89622.97;;;7.92;28.82
46782;BME280;32541;46.298;11.506;2023-03-16T11:20:22;89603.31;;;7.86;28.12
46782;BME280;32541;46.298;11.506;2023-03-16T11:22:50;89609.03;;;7.80;27.98
46782;BME280;32541;46.298;11.506;2023-03-16T11:25:45;89606.03;;;7.86;28.36
46782;BME280;32541;46.298;11.506;2023-03-16T11:28:23;89604.44;;;7.58;29.10
46782;BME280;32541;46.298;11.506;2023-03-16T11:31:05;89608.53;;;7.25;29.76
46782;BME280;32541;46.298;11.506;2023-03-16T11:33:32;89602.78;;;7.63;28.94
46782;BME280;32541;46.298;11.506;2023-03-16T11:36:22;89608.66;;;8.01;29.73
46782;BME280;32541;46.298;11.506;2023-03-16T11:39:21;89611.91;;;8.42;30.02
46782;BME280;32541;46.298;11.506;2023-03-16T11:49:46;89597.53;;;8.68;28.98
46782;BME280;32541;46.298;11.506;2023-03-16T11:52:40;89599.66;;;8.43;28.72
46782;BME280;32541;46.298;11.506;2023-03-16T12:03:45;89576.19;;;9.20;27.85
46782;BME280;32541;46.298;11.506;2023-03-16T12:17:07;89552.13;;;9.83;28.86
46782;BME280;32541;46.298;11.506;2023-03-16T12:22:38;89549.97;;;9.36;27.09
46782;BME280;32541;46.298;11.506;2023-03-16T12:25:16;89546.84;;;8.86;27.98
46782;BME280;32541;46.298;11.506;2023-03-16T12:27:43;89538.53;;;9.30;29.30
46782;BME280;32541;46.298;11.506;2023-03-16T12:30:41;89546.06;;;9.39;27.95
46782;BME280;32541;46.298;11.506;2023-03-16T12:44:23;89533.06;;;8.93;27.15
46782;BME280;32541;46.298;11.506;2023-03-16T12:49:37;89528.28;;;8.67;29.52
46782;BME280;32541;46.298;11.506;2023-03-16T12:52:08;89525.97;;;9.27;28.82
46782;BME280;32541;46.298;11.506;2023-03-16T12:54:34;89527.13;;;9.79;28.98
46782;BME280;32541;46.298;11.506;2023-03-16T12:57:02;89523.00;;;10.17;26.90
46782;BME280;32541;46.298;11.506;2023-03-16T12:59:43;89531.22;;;10.55;28.32
46782;BME280;32541;46.298;11.506;2023-03-16T13:02:24;89522.78;;;9.86;27.96
46782;BME280;32541;46.298;11.506;2023-03-16T13:05:14;89524.94;;;9.22;28.24
46782;BME280;32541;46.298;11.506;2023-03-16T13:07:49;89530.19;;;9.93;28.01
46782;BME280;32541;46.298;11.506;2023-03-16T13:10:16;89520.75;;;9.86;27.68
46782;BME280;32541;46.298;11.506;2023-03-16T13:12:42;89516.16;;;9.79;28.14
46782;BME280;32541;46.298;11.506;2023-03-16T13:17:48;89518.03;;;9.86;27.75
46782;BME280;32541;46.298;11.506;2023-03-16T13:20:29;89511.53;;;10.11;28.56
46782;BME280;32541;46.298;11.506;2023-03-16T13:28:32;89518.59;;;10.90;28.33
46782;BME280;32541;46.298;11.506;2023-03-16T13:31:00;89507.06;;;10.63;28.28
46782;BME280;32541;46.298;11.506;2023-03-16T13:33:28;89532.84;;;10.20;27.39
46782;BME280;32541;46.298;11.506;2023-03-16T13:35:56;89515.53;;;9.16;29.45
46782;BME280;32541;46.298;11.506;2023-03-16T13:38:24;89511.88;;;9.04;29.77
46782;BME280;32541;46.298;11.506;2023-03-16T13:40:54;89498.28;;;9.42;29.44
46782;BME280;32541;46.298;11.506;2023-03-16T13:43:26;89493.59;;;9.90;31.00
46782;BME280;32541;46.298;11.506;2023-03-16T13:46:15;89503.91;;;10.38;29.45
46782;BME280;32541;46.298;11.506;2023-03-16T13:48:41;89487.34;;;10.76;28.23
46782;BME280;32541;46.298;11.506;2023-03-16T13:51:13;89490.22;;;10.88;28.40
46782;BME280;32541;46.298;11.506;2023-03-16T13:53:40;89505.50;;;10.50;28.92
46782;BME280;32541;46.298;11.506;2023-03-16T13:56:06;89492.06;;;10.26;28.65
46782;BME280;32541;46.298;11.506;2023-03-16T13:58:37;89508.47;;;9.22;30.53
46782;BME280;32541;46.298;11.506;2023-03-16T14:01:13;89501.38;;;9.65;30.41
46782;BME280;32541;46.298;11.506;2023-03-16T14:03:44;89497.84;;;10.20;30.14
46782;BME280;32541;46.298;11.506;2023-03-16T14:06:26;89504.72;;;9.73;30.27
46782;BME280;32541;46.298;11.506;2023-03-16T14:08:56;89498.88;;;10.15;29.73
46782;BME280;32541;46.298;11.506;2023-03-16T14:11:25;89501.72;;;10.36;29.19
46782;BME280;32541;46.298;11.506;2023-03-16T14:13:52;89488.63;;;9.50;29.85
46782;BME280;32541;46.298;11.506;2023-03-16T14:16:21;89498.16;;;9.04;30.60
46782;BME280;32541;46.298;11.506;2023-03-16T14:19:00;89486.56;;;9.32;31.95
46782;BME280;32541;46.298;11.506;2023-03-16T14:21:31;89484.97;;;10.13;31.87
46782;BME280;32541;46.298;11.506;2023-03-16T14:24:04;89487.97;;;10.07;30.70
46782;BME280;32541;46.298;11.506;2023-03-16T14:26:45;89482.59;;;9.81;30.03